Time;durP1;ratioP1;P1;durP2;ratioP2;P2;SDS_P1;SDS_P2;PMS_P1;PMS_P2;Temp;Humidity;BMP_temperature;BMP_pressure;BME280_temperature;BME280_humidity;BME280_pressure;Samples;Min_cycle;Max_cycle;Signal;HPM_P1;HPM_P2
2021/06/25 00:01:14;;;;;;;18.33;15.97;;;16.60;99.90;;;;;;5012863;28;20183;-64
2021/06/25 00:03:39;;;;;;;21.63;17.93;;;16.60;99.90;;;;;;5011766;28;20630;-65
2021/06/25 00:06:05;;;;;;;19.87;17.13;;;16.60;99.90;;;;;;5027942;28;20191;-64
2021/06/25 00:08:31;;;;;;;18.67;16.73;;;16.60;99.90;;;;;;5031279;28;20226;-64
2021/06/25 00:10:56;;;;;;;24.47;18.00;;;16.60;99.90;;;;;;5016259;28;20180;-65
2021/06/25 00:13:22;;;;;;;20.43;17.07;;;16.60;99.90;;;;;;5012949;28;20224;-64
2021/06/25 00:15:47;;;;;;;20.50;16.63;;;16.60;99.90;;;;;;5035494;28;20172;-64
2021/06/25 00:18:14;;;;;;;23.43;17.67;;;16.60;99.90;;;;;;5034984;28;20187;-65
2021/06/25 00:20:40;;;;;;;20.20;18.10;;;16.70;99.90;;;;;;5034393;28;20176;-65
2021/06/25 00:23:05;;;;;;;21.27;17.17;;;16.70;99.90;;;;;;5035267;28;20178;-64
2021/06/25 00:25:32;;;;;;;20.23;17.70;;;16.70;99.90;;;;;;5017043;28;20188;-65
2021/06/25 00:27:58;;;;;;;21.83;18.03;;;16.70;99.90;;;;;;5015320;28;20192;-66
2021/06/25 00:30:24;;;;;;;20.23;16.60;;;16.60;99.90;;;;;;5031332;28;20190;-66
2021/06/25 00:32:49;;;;;;;20.13;16.93;;;16.60;99.90;;;;;;5035020;28;20629;-66
2021/06/25 00:35:15;;;;;;;18.97;16.53;;;16.60;99.90;;;;;;5020216;28;20183;-65
2021/06/25 00:37:43;;;;;;;21.57;17.80;;;16.60;99.90;;;;;;5014891;28;20219;-65
2021/06/25 00:40:09;;;;;;;24.13;17.93;;;16.50;99.90;;;;;;5028107;28;20179;-67
2021/06/25 00:42:35;;;;;;;24.30;18.67;;;16.40;99.90;;;;;;5035164;28;20244;-65
2021/06/25 00:45:18;;;;;;;19.87;17.60;;;16.30;99.90;;;;;;5023257;28;20214;-64
2021/06/25 00:47:46;;;;;;;20.00;17.10;;;16.20;99.90;;;;;;5014703;28;20192;-64
2021/06/25 00:50:15;;;;;;;22.23;18.97;;;16.20;99.90;;;;;;5026190;28;20217;-64
2021/06/25 00:52:42;;;;;;;22.90;18.50;;;16.00;99.90;;;;;;5034662;28;20196;-64
2021/06/25 00:55:08;;;;;;;22.23;18.67;;;16.00;99.90;;;;;;5023133;28;20187;-65
2021/06/25 00:57:33;;;;;;;26.10;19.53;;;15.90;99.90;;;;;;5014563;28;20275;-65
2021/06/25 00:59:59;;;;;;;26.03;19.57;;;15.80;99.90;;;;;;5024394;28;20258;-67
2021/06/25 01:02:25;;;;;;;24.73;19.00;;;15.70;99.90;;;;;;5034706;28;20167;-66
2021/06/25 01:04:52;;;;;;;24.67;19.40;;;15.70;99.90;;;;;;5026501;28;20546;-66
2021/06/25 01:07:18;;;;;;;23.87;20.20;;;15.60;99.90;;;;;;5014532;28;20204;-66
2021/06/25 01:09:44;;;;;;;28.17;20.53;;;15.60;99.90;;;;;;5021281;28;20202;-66
2021/06/25 01:12:10;;;;;;;26.70;21.13;;;15.50;99.90;;;;;;5034485;28;20644;-65
2021/06/25 01:14:38;;;;;;;28.30;19.53;;;15.40;99.90;;;;;;5029462;28;20196;-67
2021/06/25 01:17:06;;;;;;;24.17;19.27;;;15.30;99.90;;;;;;5014815;28;20192;-66
2021/06/25 01:19:32;;;;;;;25.43;19.23;;;15.20;99.90;;;;;;5019433;28;20172;-66
2021/06/25 01:21:58;;;;;;;27.43;20.70;;;15.20;99.90;;;;;;5034439;28;20575;-66
2021/06/25 01:24:24;;;;;;;28.20;20.20;;;15.00;99.90;;;;;;5025534;28;20184;-67
2021/06/25 01:26:49;;;;;;;26.67;20.37;;;15.00;99.90;;;;;;5013712;28;20194;-66
2021/06/25 01:29:15;;;;;;;29.30;20.53;;;14.90;99.90;;;;;;5021143;28;20182;-66
2021/06/25 01:31:40;;;;;;;27.90;22.07;;;14.90;99.90;;;;;;5034131;28;20186;-65
2021/06/25 01:34:07;;;;;;;30.47;21.63;;;14.90;99.90;;;;;;5028798;28;20210;-66
2021/06/25 01:36:34;;;;;;;34.03;22.23;;;14.90;99.90;;;;;;5014165;28;20172;-66
2021/06/25 01:39:01;;;;;;;29.93;21.60;;;14.80;99.90;;;;;;5017875;28;20203;-66
2021/06/25 01:41:27;;;;;;;24.10;20.23;;;14.80;99.90;;;;;;5033986;28;20179;-65
2021/06/25 01:43:54;;;;;;;25.50;20.37;;;14.70;99.90;;;;;;5032024;28;20168;-67
2021/06/25 01:46:21;;;;;;;30.63;21.90;;;14.70;99.90;;;;;;5013782;28;20187;-66
2021/06/25 01:48:47;;;;;;;27.53;21.63;;;14.70;99.90;;;;;;5014367;28;20212;-65
2021/06/25 01:51:13;;;;;;;30.80;22.37;;;14.60;99.90;;;;;;5033539;28;20167;-64
2021/06/25 01:53:39;;;;;;;29.77;22.10;;;14.50;99.90;;;;;;5033503;28;20245;-65
2021/06/25 01:56:04;;;;;;;30.60;22.23;;;14.50;99.90;;;;;;5013994;28;20176;-64
2021/06/25 01:58:31;;;;;;;30.17;22.93;;;14.50;99.90;;;;;;5013459;28;20196;-64
2021/06/25 02:01:16;;;;;;;32.37;21.73;;;14.40;99.90;;;;;;5023461;28;20168;-64
2021/06/25 02:03:44;;;;;;;30.97;22.23;;;14.40;99.90;;;;;;5014180;28;20645;-64
2021/06/25 02:06:11;;;;;;;30.53;21.70;;;14.40;99.90;;;;;;5031747;28;20578;-65
2021/06/25 02:08:40;;;;;;;32.63;21.97;;;14.40;99.90;;;;;;5033066;28;20676;-64
2021/06/25 02:11:07;;;;;;;34.30;23.47;;;14.50;99.90;;;;;;5015459;28;20183;-65
2021/06/25 02:13:33;;;;;;;29.53;22.60;;;14.50;99.90;;;;;;5021696;28;20210;-63
2021/06/25 02:15:59;;;;;;;35.13;22.87;;;14.50;99.90;;;;;;5032938;28;20175;-65
2021/06/25 02:18:25;;;;;;;31.37;23.23;;;14.60;99.90;;;;;;5031216;28;20194;-65
2021/06/25 02:20:50;;;;;;;29.93;22.57;;;14.60;99.90;;;;;;5033066;28;20203;-65
2021/06/25 02:23:16;;;;;;;34.40;23.30;;;14.70;99.90;;;;;;5017189;28;20188;-65
2021/06/25 02:25:42;;;;;;;32.73;22.50;;;14.70;99.90;;;;;;5013160;28;20191;-66
2021/06/25 02:28:08;;;;;;;32.67;22.37;;;14.70;99.90;;;;;;5026664;28;20245;-67
2021/06/25 02:30:33;;;;;;;31.07;21.13;;;14.60;99.90;;;;;;5032990;28;20187;-67
2021/06/25 02:32:59;;;;;;;35.17;23.10;;;14.60;99.90;;;;;;5020782;28;20216;-66
2021/06/25 02:35:24;;;;;;;31.47;22.67;;;14.60;99.90;;;;;;5013345;28;20172;-66
2021/06/25 02:37:54;;;;;;;31.07;21.87;;;14.50;99.90;;;;;;5022543;28;20202;-65
2021/06/25 02:40:20;;;;;;;29.87;22.10;;;14.40;99.90;;;;;;5032478;28;20774;-64
2021/06/25 02:42:46;;;;;;;36.73;24.37;;;14.40;99.90;;;;;;5023819;28;20322;-64
2021/06/25 02:45:12;;;;;;;32.27;23.60;;;14.30;99.90;;;;;;5012844;28;20180;-64
2021/06/25 02:47:38;;;;;;;32.77;23.17;;;14.30;99.90;;;;;;5019297;28;20195;-64
2021/06/25 02:50:05;;;;;;;37.23;23.67;;;14.20;99.90;;;;;;5032357;28;20195;-64
2021/06/25 02:52:31;;;;;;;31.17;23.63;;;14.20;99.90;;;;;;5026716;28;20231;-65
2021/06/25 02:54:56;;;;;;;32.23;22.83;;;14.10;99.90;;;;;;5012673;28;20653;-66
2021/06/25 02:57:22;;;;;;;35.93;23.13;;;14.10;99.90;;;;;;5015648;28;20199;-66
2021/06/25 02:59:49;;;;;;;29.27;22.07;;;14.10;99.90;;;;;;5032198;28;20746;-65
2021/06/25 03:02:14;;;;;;;32.53;23.03;;;13.90;99.90;;;;;;5030063;28;20167;-66
2021/06/25 03:04:40;;;;;;;32.77;22.70;;;13.90;99.90;;;;;;5011337;28;20212;-66
2021/06/25 03:07:06;;;;;;;30.90;22.73;;;13.90;99.90;;;;;;5012213;28;20275;-65
2021/06/25 03:09:31;;;;;;;31.77;22.33;;;13.90;99.90;;;;;;5031957;28;20187;-64
2021/06/25 03:11:57;;;;;;;31.03;22.47;;;13.80;99.90;;;;;;5032103;28;20581;-64
2021/06/25 03:14:23;;;;;;;32.93;22.23;;;13.80;99.90;;;;;;5013792;28;20239;-64
2021/06/25 03:16:49;;;;;;;33.33;23.73;;;13.80;99.90;;;;;;5011992;28;20180;-64
2021/06/25 03:19:15;;;;;;;34.37;22.57;;;13.80;99.90;;;;;;5018633;28;20183;-66
2021/06/25 03:21:41;;;;;;;37.30;22.07;;;13.80;99.90;;;;;;5012566;28;20203;-65
2021/06/25 03:24:08;;;;;;;35.20;23.20;;;13.80;99.90;;;;;;5013647;28;20605;-67
2021/06/25 03:26:33;;;;;;;38.97;24.07;;;13.90;99.90;;;;;;5012073;28;20179;-65
2021/06/25 03:28:59;;;;;;;30.53;23.63;;;13.90;99.90;;;;;;5024792;28;20222;-66
2021/06/25 03:31:25;;;;;;;36.13;23.07;;;14.00;99.90;;;;;;5032027;28;20549;-66
2021/06/25 03:33:50;;;;;;;35.33;24.40;;;14.00;99.90;;;;;;5020902;28;20254;-64
2021/06/25 03:36:16;;;;;;;37.57;23.67;;;14.10;99.90;;;;;;5030457;28;20641;-64
2021/06/25 03:38:42;;;;;;;29.40;23.33;;;14.10;99.90;;;;;;5022464;28;20201;-65
2021/06/25 03:41:07;;;;;;;32.00;22.90;;;14.10;99.90;;;;;;5012177;28;20179;-65
2021/06/25 03:43:33;;;;;;;31.33;22.83;;;14.20;99.90;;;;;;5019142;28;20191;-67
2021/06/25 03:45:59;;;;;;;35.23;24.30;;;14.20;99.90;;;;;;5031715;28;20199;-66
2021/06/25 03:48:25;;;;;;;31.90;22.70;;;14.40;99.90;;;;;;5025701;28;20209;-65
2021/06/25 03:50:50;;;;;;;41.43;24.63;;;14.40;99.90;;;;;;5012238;28;20200;-66
2021/06/25 03:53:17;;;;;;;33.13;23.30;;;14.50;99.90;;;;;;5015560;28;20199;-66
2021/06/25 03:58:28;;;;;;;32.27;22.30;;;14.60;99.90;;;;;;5027098;28;20254;-66
2021/06/25 04:00:54;;;;;;;29.13;23.07;;;14.60;99.90;;;;;;5011937;28;20223;-63
2021/06/25 04:03:19;;;;;;;30.87;23.90;;;14.70;99.90;;;;;;5014410;28;20192;-66
2021/06/25 04:05:45;;;;;;;31.70;23.27;;;14.70;99.90;;;;;;5031794;28;20194;-66
2021/06/25 04:08:11;;;;;;;34.80;23.87;;;14.70;99.90;;;;;;5026550;28;20196;-64
2021/06/25 04:10:37;;;;;;;31.87;23.70;;;14.80;99.90;;;;;;5031433;28;20202;-63
2021/06/25 04:13:02;;;;;;;32.67;22.93;;;14.80;99.90;;;;;;5020716;28;20279;-66
2021/06/25 04:15:28;;;;;;;31.23;22.67;;;14.80;99.90;;;;;;5012071;28;20176;-66
2021/06/25 04:17:54;;;;;;;32.77;24.63;;;14.90;99.90;;;;;;5020138;28;20211;-66
2021/06/25 04:20:20;;;;;;;29.53;22.63;;;14.90;99.90;;;;;;5031478;28;20171;-65
2021/06/25 04:22:46;;;;;;;29.70;22.50;;;15.00;99.90;;;;;;5024216;28;20219;-64
2021/06/25 04:25:12;;;;;;;33.40;23.50;;;15.00;99.90;;;;;;5011552;28;20208;-64
2021/06/25 04:27:37;;;;;;;28.13;22.87;;;15.10;99.90;;;;;;5016214;28;20204;-64
2021/06/25 04:30:05;;;;;;;33.37;23.40;;;15.20;99.90;;;;;;5031305;28;20517;-63
2021/06/25 04:32:32;;;;;;;28.63;23.17;;;15.20;99.90;;;;;;5027278;28;20188;-64
2021/06/25 04:34:57;;;;;;;30.20;23.13;;;15.30;99.90;;;;;;5011489;28;20194;-64
2021/06/25 04:37:23;;;;;;;29.43;22.30;;;15.40;99.90;;;;;;5012989;28;20200;-66
2021/06/25 04:39:49;;;;;;;30.73;21.90;;;15.40;99.90;;;;;;5031281;28;20180;-64
2021/06/25 04:42:14;;;;;;;29.33;23.07;;;15.50;99.90;;;;;;5030805;28;20176;-64
2021/06/25 04:44:40;;;;;;;25.53;22.13;;;15.50;99.90;;;;;;5010242;28;20564;-66
2021/06/25 04:47:07;;;;;;;24.97;21.13;;;15.60;99.90;;;;;;5011307;28;20311;-66
2021/06/25 04:49:39;;;;;;;25.43;20.83;;;15.70;99.90;;;;;;5029133;28;20226;-64
2021/06/25 04:52:06;;;;;;;29.63;22.60;;;15.80;99.90;;;;;;5031013;28;20668;-64
2021/06/25 04:54:33;;;;;;;25.73;21.73;;;15.80;99.90;;;;;;5028416;28;20715;-64
2021/06/25 04:56:59;;;;;;;27.60;21.73;;;15.70;99.90;;;;;;5030683;28;20172;-64
2021/06/25 04:59:24;;;;;;;35.17;22.77;;;15.70;99.90;;;;;;5015104;28;20176;-64
2021/06/25 05:01:50;;;;;;;27.60;22.27;;;15.70;99.90;;;;;;5013596;28;20169;-63
2021/06/25 05:04:15;;;;;;;31.63;22.63;;;15.70;99.90;;;;;;5028241;28;20187;-66
2021/06/25 05:06:41;;;;;;;29.70;23.63;;;15.80;99.90;;;;;;5034495;28;20175;-66
2021/06/25 05:09:07;;;;;;;36.47;24.83;;;15.70;99.90;;;;;;5022444;28;20223;-66
2021/06/25 05:11:32;;;;;;;36.70;24.87;;;15.80;99.90;;;;;;5014917;28;20206;-65
2021/06/25 05:13:58;;;;;;;35.70;25.17;;;16.00;99.90;;;;;;5024488;28;20207;-66
2021/06/25 05:16:24;;;;;;;33.87;25.47;;;16.10;99.90;;;;;;5034032;28;20180;-66
2021/06/25 05:18:49;;;;;;;29.20;24.57;;;16.40;99.90;;;;;;5025986;28;20689;-66
2021/06/25 05:21:15;;;;;;;31.93;24.83;;;16.70;99.90;;;;;;5014625;28;20172;-66
2021/06/25 05:23:40;;;;;;;27.63;23.97;;;17.00;99.90;;;;;;5012689;28;20609;-64
2021/06/25 05:26:06;;;;;;;33.20;23.70;;;17.40;99.90;;;;;;5014039;28;20215;-65
2021/06/25 05:28:32;;;;;;;29.97;24.13;;;17.70;99.90;;;;;;5017988;28;20199;-64
2021/06/25 05:30:57;;;;;;;26.03;22.73;;;17.90;99.90;;;;;;5033936;28;20183;-65
2021/06/25 05:33:23;;;;;;;23.97;21.07;;;18.10;99.90;;;;;;5031010;28;20199;-66
2021/06/25 05:35:49;;;;;;;23.60;20.90;;;18.30;99.90;;;;;;5014053;28;20645;-65
2021/06/25 05:38:15;;;;;;;24.23;21.63;;;18.80;99.90;;;;;;5017081;28;20206;-66
2021/06/25 05:40:41;;;;;;;28.53;21.77;;;19.20;99.90;;;;;;5013892;28;20206;-66
2021/06/25 05:43:07;;;;;;;29.30;22.80;;;19.30;99.90;;;;;;5016538;28;20172;-65
2021/06/25 05:45:34;;;;;;;23.77;21.30;;;19.40;99.90;;;;;;5033655;28;20237;-64
2021/06/25 05:48:01;;;;;;;24.67;21.17;;;19.70;99.90;;;;;;5031722;28;20562;-65
2021/06/25 05:50:27;;;;;;;25.13;21.87;;;19.80;99.90;;;;;;5013680;28;20211;-64
2021/06/25 05:52:53;;;;;;;25.73;21.77;;;19.80;99.90;;;;;;5013695;28;20231;-64
2021/06/25 05:55:19;;;;;;;24.30;20.10;;;19.80;99.90;;;;;;5013781;28;20668;-64
2021/06/25 05:57:47;;;;;;;25.60;22.90;;;20.00;99.90;;;;;;5013313;28;20596;-64
2021/06/25 06:00:14;;;;;;;23.07;20.80;;;20.20;99.90;;;;;;5031258;28;20237;-66
2021/06/25 06:02:39;;;;;;;26.07;20.77;;;20.30;99.90;;;;;;5033628;28;20176;-65
2021/06/25 06:05:05;;;;;;;20.73;18.45;;;20.40;99.90;;;;;;5017189;28;20184;-64
2021/06/25 06:07:31;;;;;;;22.63;19.30;;;20.50;99.90;;;;;;5013065;28;20255;-64
2021/06/25 06:09:57;;;;;;;21.63;19.17;;;20.40;99.90;;;;;;5027491;28;20210;-64
2021/06/25 06:12:22;;;;;;;24.13;19.37;;;20.30;99.90;;;;;;5024375;28;20207;-65
2021/06/25 06:14:49;;;;;;;25.73;20.57;;;20.20;99.90;;;;;;5019453;28;20207;-65
2021/06/25 06:17:18;;;;;;;21.37;18.30;;;20.10;99.90;;;;;;5016976;28;20196;-64
2021/06/25 06:19:46;;;;;;;21.10;18.73;;;20.00;99.90;;;;;;5014358;28;20180;-64
2021/06/25 06:33:17;;;;;;;18.20;16.03;;;20.40;99.90;;;;;;5013255;28;20266;-65
2021/06/25 06:35:43;;;;;;;15.47;13.63;;;20.90;99.90;;;;;;5023696;28;20275;-64
2021/06/25 06:38:08;;;;;;;16.40;13.63;;;21.30;99.90;;;;;;5032625;28;20409;-64
2021/06/25 06:40:34;;;;;;;14.97;13.47;;;21.40;99.90;;;;;;5022724;28;20172;-66
2021/06/25 06:43:02;;;;;;;18.63;13.80;;;21.30;99.90;;;;;;5012864;28;20250;-66
2021/06/25 06:45:27;;;;;;;17.52;15.02;;;21.20;99.90;;;;;;5013912;28;20234;-66
2021/06/25 06:47:53;;;;;;;14.00;12.50;;;21.10;99.90;;;;;;5012305;28;20196;-65
2021/06/25 06:50:19;;;;;;;19.43;14.17;;;21.20;99.90;;;;;;5016715;28;20195;-66
2021/06/25 06:52:48;;;;;;;14.63;13.13;;;21.10;99.90;;;;;;5032224;28;20187;-65
2021/06/25 06:55:16;;;;;;;15.25;13.50;;;21.10;99.90;;;;;;5030577;28;20199;-65
2021/06/25 06:57:42;;;;;;;16.52;13.45;;;21.20;99.90;;;;;;5032006;28;20283;-65
2021/06/25 07:00:09;;;;;;;15.13;13.25;;;21.40;99.90;;;;;;5028572;28;20266;-65
2021/06/25 07:02:39;;;;;;;14.77;13.10;;;21.50;99.90;;;;;;5012319;28;20179;-65
2021/06/25 07:05:07;;;;;;;16.25;14.15;;;21.40;99.90;;;;;;5013406;28;20184;-66
2021/06/25 07:07:32;;;;;;;16.67;13.63;;;21.40;99.90;;;;;;5011930;28;20192;-65
2021/06/25 07:09:59;;;;;;;15.13;13.57;;;21.40;99.90;;;;;;5013192;28;20180;-65
2021/06/25 07:12:25;;;;;;;15.75;14.05;;;21.50;99.90;;;;;;5031825;28;20580;-65
2021/06/25 07:14:50;;;;;;;15.18;12.80;;;21.80;99.90;;;;;;5028415;28;20215;-65
2021/06/25 07:17:16;;;;;;;14.25;12.55;;;22.30;99.90;;;;;;5030799;28;20653;-65
2021/06/25 07:19:41;;;;;;;16.95;12.75;;;22.70;99.90;;;;;;5030222;28;20210;-65
2021/06/25 07:22:07;;;;;;;14.23;12.80;;;23.00;99.90;;;;;;5012252;28;20176;-66
2021/06/25 07:24:33;;;;;;;13.55;12.20;;;23.00;99.90;;;;;;5011299;28;20188;-65
2021/06/25 07:26:58;;;;;;;14.20;12.80;;;23.20;99.90;;;;;;5031188;28;20514;-66
2021/06/25 07:29:24;;;;;;;13.95;12.65;;;23.40;99.90;;;;;;5031816;28;20251;-65
2021/06/25 07:31:50;;;;;;;15.18;13.68;;;23.70;99.90;;;;;;5022172;28;20188;-64
2021/06/25 07:34:16;;;;;;;15.40;13.80;;;23.90;99.90;;;;;;5014498;28;20219;-65
2021/06/25 07:36:42;;;;;;;14.70;13.18;;;23.80;99.90;;;;;;5011686;28;20178;-64
2021/06/25 07:39:09;;;;;;;14.60;12.70;;;23.60;99.90;;;;;;5011832;28;20266;-65
2021/06/25 07:41:35;;;;;;;14.07;12.68;;;23.50;99.90;;;;;;5012060;28;20178;-65
2021/06/25 07:44:01;;;;;;;14.75;12.82;;;23.60;99.90;;;;;;5011211;28;20222;-64
2021/06/25 07:46:27;;;;;;;13.32;11.93;;;23.80;99.90;;;;;;5011504;28;20184;-65
2021/06/25 07:48:52;;;;;;;14.43;12.70;;;24.00;99.90;;;;;;5011650;28;20258;-65
2021/06/25 07:51:18;;;;;;;13.98;12.05;;;23.70;99.90;;;;;;5011657;28;20172;-64
2021/06/25 07:53:44;;;;;;;14.45;13.05;;;23.60;99.90;;;;;;5011838;28;20200;-65
2021/06/25 07:56:09;;;;;;;15.77;12.43;;;23.40;99.90;;;;;;5011572;28;20168;-64
2021/06/25 07:58:35;;;;;;;14.70;11.48;;;23.50;99.90;;;;;;5011438;28;20188;-65
2021/06/25 08:01:00;;;;;;;13.93;11.23;;;23.80;99.90;;;;;;5011762;28;20171;-64
2021/06/25 08:03:26;;;;;;;13.65;11.82;;;24.00;99.90;;;;;;5011967;28;20176;-66
2021/06/25 08:05:54;;;;;;;11.93;10.70;;;24.20;99.90;;;;;;5011433;28;20172;-65
2021/06/25 08:08:20;;;;;;;12.13;11.00;;;24.30;99.90;;;;;;5011305;28;20204;-65
2021/06/25 08:10:46;;;;;;;12.38;10.55;;;24.50;99.90;;;;;;5011550;28;20180;-65
2021/06/25 08:13:11;;;;;;;11.35;10.23;;;24.70;99.90;;;;;;5011610;28;20199;-65
2021/06/25 08:15:37;;;;;;;12.35;11.15;;;24.80;99.90;;;;;;5011636;28;20173;-67
2021/06/25 08:18:03;;;;;;;12.77;11.00;;;24.80;99.90;;;;;;5011468;28;20188;-66
2021/06/25 08:20:29;;;;;;;12.18;10.88;;;24.80;99.90;;;;;;5011321;28;20176;-65
2021/06/25 08:22:55;;;;;;;12.68;10.32;;;24.90;99.90;;;;;;5011608;28;20175;-66
2021/06/25 08:25:20;;;;;;;11.50;10.40;;;25.20;99.90;;;;;;5011405;28;20172;-66
2021/06/25 08:27:46;;;;;;;11.65;10.45;;;25.20;99.90;;;;;;5012036;28;20658;-66
2021/06/25 08:30:13;;;;;;;14.20;10.52;;;25.40;99.90;;;;;;5014046;28;20248;-66
2021/06/25 08:32:38;;;;;;;11.55;10.52;;;25.80;99.90;;;;;;5021146;28;20207;-64
2021/06/25 08:35:05;;;;;;;12.25;11.00;;;25.90;99.90;;;;;;5025390;28;20592;-66
2021/06/25 08:37:31;;;;;;;10.82;9.73;;;25.60;99.90;;;;;;5014782;28;20196;-65
2021/06/25 08:39:57;;;;;;;11.30;10.30;;;25.40;99.90;;;;;;5018454;28;20546;-65
2021/06/25 08:42:23;;;;;;;13.15;10.75;;;25.50;99.90;;;;;;5025465;28;20168;-65
2021/06/25 08:44:49;;;;;;;10.30;9.25;;;26.10;99.90;;;;;;5016857;28;20227;-67
2021/06/25 08:47:15;;;;;;;11.05;9.85;;;26.60;99.90;;;;;;5033092;28;20222;-65
2021/06/25 08:49:45;;;;;;;11.00;9.90;;;27.00;99.90;;;;;;5030397;28;20199;-66
2021/06/25 08:52:11;;;;;;;11.38;10.48;;;27.20;99.90;;;;;;5015041;28;20172;-66
2021/06/25 08:54:37;;;;;;;9.95;8.95;;;27.20;99.90;;;;;;5017291;28;20858;-65
2021/06/25 08:57:07;;;;;;;10.85;9.90;;;27.50;99.90;;;;;;5034250;28;20652;-66
2021/06/25 08:59:33;;;;;;;10.90;9.80;;;27.80;99.90;;;;;;5032142;28;20183;-65
2021/06/25 09:01:59;;;;;;;10.75;9.75;;;28.30;99.90;;;;;;5014727;28;20175;-65
2021/06/25 09:04:41;;;;;;;9.60;8.68;;;28.60;99.90;;;;;;5014416;28;20183;-64
2021/06/25 09:07:08;;;;;;;10.75;9.65;;;28.80;99.90;;;;;;5034075;28;20810;-65
2021/06/25 09:09:47;;;;;;;12.27;9.40;;;29.20;99.90;;;;;;5033175;28;20259;-66
2021/06/25 09:12:21;;;;;;;9.68;8.77;;;29.00;99.90;;;;;;4995000;28;20177;-66
2021/06/25 09:15:03;;;;;;;10.15;9.20;;;28.50;99.90;;;;;;5000538;28;20196;-65
2021/06/25 09:17:29;;;;;;;10.02;9.07;;;27.80;99.90;;;;;;5033869;28;20195;-65
2021/06/25 09:19:55;;;;;;;9.93;8.95;;;26.90;99.90;;;;;;5018468;28;20187;-65
2021/06/25 09:22:21;;;;;;;9.77;8.88;;;26.10;99.90;;;;;;5014335;28;20176;-67
2021/06/25 09:25:19;;;;;;;10.35;8.20;;;25.90;99.90;;;;;;5027960;28;20190;-65
2021/06/25 09:27:54;;;;;;;9.82;8.43;;;25.80;99.90;;;;;;5021562;28;20234;-66
2021/06/25 09:30:20;;;;;;;9.57;8.68;;;25.90;99.90;;;;;;5015753;28;20229;-65
2021/06/25 09:32:48;;;;;;;9.93;9.10;;;26.30;99.90;;;;;;5013957;28;20168;-65
2021/06/25 09:35:17;;;;;;;9.88;9.05;;;26.60;99.90;;;;;;5030304;28;20167;-65
2021/06/25 09:37:45;;;;;;;8.85;8.10;;;26.70;99.90;;;;;;5033601;28;20195;-65
2021/06/25 09:40:13;;;;;;;10.40;9.40;;;26.50;99.90;;;;;;5018100;28;20183;-65
2021/06/25 09:42:42;;;;;;;9.50;8.65;;;25.90;99.90;;;;;;5013925;28;20172;-66
2021/06/25 09:45:15;;;;;;;10.45;9.45;;;25.10;99.90;;;;;;5015178;28;20178;-65
2021/06/25 09:47:44;;;;;;;10.55;9.48;;;25.00;99.90;;;;;;5021184;28;20195;-67
2021/06/25 09:50:14;;;;;;;10.00;9.00;;;24.70;99.90;;;;;;5033635;28;20187;-66
2021/06/25 09:52:47;;;;;;;8.90;8.18;;;24.90;99.90;;;;;;5025249;28;20674;-66
2021/06/25 09:55:15;;;;;;;9.65;8.77;;;24.90;99.90;;;;;;5013810;28;20177;-65
2021/06/25 10:01:21;;;;;;;9.57;8.68;;;25.80;99.90;;;;;;5029071;28;20198;-66
2021/06/25 10:03:32;;;;;;;9.68;8.77;;;26.00;99.90;;;;;;5019079;28;20199;-66
2021/06/25 10:06:13;;;;;;;10.27;9.43;;;26.30;99.90;;;;;;5013403;28;20208;-66
2021/06/25 10:08:39;;;;;;;10.18;9.18;;;26.00;99.90;;;;;;5027249;28;20222;-66
2021/06/25 10:11:06;;;;;;;11.18;9.05;;;26.10;99.90;;;;;;5033346;28;20175;-65
2021/06/25 10:13:34;;;;;;;9.45;8.52;;;26.30;99.90;;;;;;5018856;28;20687;-66
2021/06/25 10:16:01;;;;;;;9.25;8.43;;;26.40;99.90;;;;;;5013218;28;20187;-67
2021/06/25 10:18:30;;;;;;;10.90;9.45;;;26.60;99.90;;;;;;5024474;28;20227;-65
2021/06/25 10:20:56;;;;;;;10.02;9.13;;;26.80;99.90;;;;;;5032979;28;20164;-66
2021/06/25 10:23:24;;;;;;;10.35;9.45;;;27.10;99.90;;;;;;5021215;28;20646;-67
2021/06/25 10:25:51;;;;;;;10.73;9.73;;;27.20;99.90;;;;;;5013025;28;20180;-66
2021/06/25 10:28:18;;;;;;;9.45;8.55;;;27.20;99.90;;;;;;5014090;28;20207;-67
2021/06/25 10:30:46;;;;;;;9.38;8.57;;;27.30;99.90;;;;;;5012987;28;20267;-66
2021/06/25 10:33:12;;;;;;;9.38;8.57;;;27.60;99.90;;;;;;5014031;28;20214;-65
2021/06/25 10:35:40;;;;;;;9.98;9.15;;;27.50;99.90;;;;;;5012848;28;20161;-65
2021/06/25 10:38:06;;;;;;;9.27;8.32;;;27.60;99.90;;;;;;5019236;28;20285;-65
2021/06/25 10:40:32;;;;;;;9.88;8.98;;;27.80;99.90;;;;;;5015573;28;20211;-65
2021/06/25 10:43:00;;;;;;;9.60;8.80;;;27.60;99.90;;;;;;5017416;28;20183;-65
2021/06/25 10:45:42;;;;;;;9.93;8.93;;;27.80;99.90;;;;;;5032211;28;20168;-65
2021/06/25 10:48:08;;;;;;;9.45;8.52;;;28.30;99.90;;;;;;5025916;28;20196;-65
2021/06/25 10:50:34;;;;;;;9.95;9.00;;;28.20;99.90;;;;;;5023286;28;20195;-66
2021/06/25 10:53:07;;;;;;;9.55;8.65;;;28.20;99.90;;;;;;5028107;28;20203;-65
2021/06/25 10:55:32;;;;;;;9.88;8.98;;;28.10;99.90;;;;;;5012562;28;20172;-65
2021/06/25 10:57:58;;;;;;;8.93;8.15;;;28.10;99.90;;;;;;5015114;28;20202;-66
2021/06/25 11:00:39;;;;;;;10.63;9.63;;;27.70;99.90;;;;;;5030838;28;20637;-66
2021/06/25 11:03:06;;;;;;;10.30;8.98;;;27.40;99.90;;;;;;5028368;28;20184;-66
2021/06/25 11:05:35;;;;;;;10.25;9.23;;;27.50;99.90;;;;;;5012445;28;20184;-65
2021/06/25 11:08:16;;;;;;;9.73;8.90;;;27.70;99.90;;;;;;5014605;28;20207;-65
2021/06/25 11:10:53;;;;;;;10.48;9.57;;;27.40;99.90;;;;;;5032113;28;20179;-66
2021/06/25 11:13:22;;;;;;;12.60;11.38;;;27.60;99.90;;;;;;5027472;28;20287;-67
2021/06/25 11:15:50;;;;;;;9.55;8.75;;;27.90;99.90;;;;;;5011811;28;20176;-66
2021/06/25 11:18:19;;;;;;;9.63;8.80;;;28.00;99.90;;;;;;5013251;28;20198;-66
2021/06/25 11:20:55;;;;;;;10.27;9.20;;;28.10;99.90;;;;;;5012085;28;20171;-66
2021/06/25 11:23:27;;;;;;;8.93;8.02;;;27.80;99.90;;;;;;5016832;28;20265;-65
2021/06/25 11:26:00;;;;;;;10.30;9.30;;;27.70;99.90;;;;;;5031594;28;20565;-66
2021/06/25 11:28:37;;;;;;;9.68;8.75;;;27.70;99.90;;;;;;5030021;28;20226;-65
2021/06/25 11:31:16;;;;;;;9.20;8.38;;;27.90;99.90;;;;;;5031848;28;20179;-66
2021/06/25 11:33:48;;;;;;;10.13;9.15;;;27.80;99.90;;;;;;4992588;28;20208;-67
2021/06/25 11:36:17;;;;;;;10.60;9.50;;;27.90;99.90;;;;;;4993424;28;20175;-67
2021/06/25 11:38:54;;;;;;;10.00;9.10;;;28.30;99.90;;;;;;5031447;28;20695;-67
2021/06/25 11:41:22;;;;;;;8.38;7.68;;;29.10;99.90;;;;;;5030705;28;20178;-67
2021/06/25 11:43:48;;;;;;;8.55;7.82;;;30.00;99.90;;;;;;5012001;28;20255;-66
2021/06/25 11:46:16;;;;;;;9.18;8.27;;;30.60;99.90;;;;;;5018621;28;20176;-67
2021/06/25 11:48:43;;;;;;;8.73;8.02;;;31.10;99.90;;;;;;5031522;28;20276;-65
2021/06/25 11:51:09;;;;;;;10.15;9.32;;;31.50;99.90;;;;;;5025949;28;20188;-66
2021/06/25 11:53:36;;;;;;;9.13;8.30;;;31.00;99.90;;;;;;5011881;28;20291;-67
2021/06/25 11:56:01;;;;;;;9.50;8.55;;;30.60;99.90;;;;;;5015753;28;20172;-65
2021/06/25 11:58:27;;;;;;;9.23;8.32;;;29.90;99.90;;;;;;5021588;28;20191;-65
2021/06/25 12:01:05;;;;;;;9.15;8.35;;;28.90;99.90;;;;;;5005603;28;20191;-67
2021/06/25 12:03:43;;;;;;;9.60;8.80;;;28.40;99.90;;;;;;5013858;28;20262;-66
2021/06/25 12:06:09;;;;;;;9.93;9.00;;;28.40;99.90;;;;;;5011570;28;20251;-67
2021/06/25 12:09:00;;;;;;;10.30;9.45;;;27.90;99.90;;;;;;5012552;28;20686;-67
2021/06/25 12:11:28;;;;;;;10.10;9.15;;;28.10;99.90;;;;;;5014986;28;20661;-65
2021/06/25 12:14:07;;;;;;;9.27;8.48;;;28.20;99.90;;;;;;5035080;28;20568;-66
2021/06/25 12:16:34;;;;;;;9.80;8.95;;;28.50;99.90;;;;;;5034669;28;20655;-65
2021/06/25 12:19:01;;;;;;;9.48;8.50;;;28.60;99.90;;;;;;4995737;28;20356;-66
2021/06/25 12:21:29;;;;;;;9.88;9.05;;;29.00;99.90;;;;;;4995700;28;20180;-66
2021/06/25 12:23:57;;;;;;;8.82;8.02;;;29.10;99.90;;;;;;5033706;28;20571;-66
2021/06/25 12:26:26;;;;;;;9.00;8.15;;;29.30;99.90;;;;;;5034751;28;20180;-66
2021/06/25 12:28:57;;;;;;;9.25;8.48;;;29.90;99.90;;;;;;5016928;28;20214;-66
2021/06/25 12:31:30;;;;;;;9.15;8.35;;;29.80;99.90;;;;;;5015236;28;20168;-66
2021/06/25 12:34:16;;;;;;;10.27;9.45;;;29.60;99.90;;;;;;5032797;28;20790;-67
2021/06/25 12:36:42;;;;;;;9.80;8.95;;;29.90;99.90;;;;;;5034639;28;20636;-66
2021/06/25 12:39:10;;;;;;;9.48;8.52;;;29.80;99.90;;;;;;5015603;28;20203;-65
2021/06/25 12:41:47;;;;;;;10.35;9.55;;;30.40;99.90;;;;;;5014974;28;20172;-66
2021/06/25 12:44:14;;;;;;;9.95;8.73;;;30.60;99.90;;;;;;5015978;28;20562;-66
2021/06/25 12:46:40;;;;;;;9.52;8.80;;;30.10;99.90;;;;;;5014788;28;20856;-66
2021/06/25 12:49:07;;;;;;;9.60;8.73;;;30.20;99.90;;;;;;5031934;28;20215;-67
2021/06/25 12:51:35;;;;;;;8.73;7.93;;;30.40;99.00;;;;;;5028476;28;20187;-67